Terminal Aerodrome Forecast
Issued by NWS Jackson, MS

Home | Current Version | Previous Version | Text Only | Print | Product List | Glossary On
Versions: 1 2 3 4 5 6 7 8 9 10 11 12 13 14 15 16
526
FTUS44 KJAN 280527
TAFHBG
TAF
KHBG 280527Z 2806/0106 10007KT P6SM OVC006
     FM280800 17005KT 1SM BR OVC003
     FM281600 18013KT P6SM BKN007 OVC015
     FM281800 18014G23KT P6SM BKN025 OVC040
     FM010200 18010KT 6SM BR BKN010 OVC025=

USA.gov is the U.S. government's official web portal to all federal, state and local government web resources and services.